CheckWX is a tool to help pilots better visualize weather data.  It is not intended as a substitute for an official pre-flight weather briefing.

20:26:20 UTC

KFSM METAR
Fort Smith Regional Airport
Fort Smith, Arkansas, USA
Current

33 mins ago

KFSM 201953Z 22005KT 10SM CLR 22/03 A2999 RMK AO2 SLP152 T02170033
Observed
Apr-20 @ 19:53 UTC
Wind
  • 220° at 5 KTS
Visibility
10 SM
Flight Rules
VFR
Cloud Levels
  • Clear skies
Temperature
22°C / 72°F
Dewpoint
C / 37°F
Humidity
29%
Altimeter
29.99" Hg
Pressure
1015.62 hPa
Previous

2 hours ago

KFSM 201853Z 27007KT 200V310 10SM CLR 22/04 A3001 RMK AO2 SLP160 T02170044
Observed
Apr-20 @ 18:53 UTC
Wind
  • 270° at 7 KTS
Visibility
10 SM
Flight Rules
VFR
Cloud Levels
  • Clear skies
Temperature
22°C / 72°F
Dewpoint
C / 39°F
Humidity
31%
Altimeter
30.01" Hg
Pressure
1016.22 hPa
Previous

3 hours ago

KFSM 201753Z 28011KT 10SM CLR 20/04 A3003 RMK AO2 SLP168 T02000039 10200 20056 58010
Observed
Apr-20 @ 17:53 UTC
Wind
  • 280° at 11 KTS
Visibility
10 SM
Flight Rules
VFR
Cloud Levels
  • Clear skies
Temperature
20°C / 68°F
Dewpoint
C / 39°F
Humidity
35%
Altimeter
30.03" Hg
Pressure
1016.92 hPa